createdAt,value
2017-08-14T00:00:19.579Z,96.84
2017-08-14T00:01:29.541Z,96.37
2017-08-14T00:02:39.493Z,97.14
2017-08-14T00:03:50.081Z,97.8
2017-08-14T00:05:00.258Z,97.52
2017-08-14T00:06:10.224Z,98.1
2017-08-14T00:07:20.488Z,98.1
2017-08-14T00:08:30.776Z,98.1
2017-08-14T00:09:41.370Z,98.1
2017-08-14T00:10:51.646Z,98.38
2017-08-14T00:12:01.927Z,98.47
2017-08-14T00:13:12.210Z,99.24
2017-08-14T00:14:22.488Z,98.96
2017-08-14T00:15:32.748Z,99.05
2017-08-14T00:16:42.834Z,99.15
2017-08-14T00:17:52.813Z,99.99
2017-08-14T00:19:03.090Z,99.99
2017-08-14T00:20:13.368Z,99.72
2017-08-14T00:21:23.927Z,99.72
2017-08-14T00:22:33.899Z,99.99
2017-08-14T00:23:43.873Z,99.99
2017-08-14T00:24:54.179Z,99.99
2017-08-14T00:26:04.467Z,99.99
2017-08-14T00:27:14.711Z,99.99
2017-08-14T00:28:24.679Z,99.99
2017-08-14T00:29:34.935Z,99.99
2017-08-14T00:30:45.227Z,99.99
2017-08-14T00:31:54.890Z,99.99
2017-08-14T00:33:05.106Z,99.99
2017-08-14T00:34:15.066Z,99.99
2017-08-14T00:35:25.350Z,99.99
2017-08-14T00:36:35.332Z,99.99
2017-08-14T00:37:45.306Z,99.99
2017-08-14T00:38:55.522Z,99.99
2017-08-14T00:40:05.794Z,99.99
2017-08-14T00:41:15.768Z,99.99
2017-08-14T00:42:26.028Z,99.99
2017-08-14T00:43:35.707Z,99.99
2017-08-14T00:44:45.925Z,99.99
2017-08-14T00:45:55.900Z,99.99
2017-08-14T00:47:06.198Z,99.99
2017-08-14T00:48:16.490Z,99.99
2017-08-14T00:49:26.462Z,99.99
2017-08-14T00:50:36.997Z,99.99
2017-08-14T00:51:46.341Z,99.99
2017-08-14T00:52:56.609Z,99.99
2017-08-14T00:54:06.888Z,99.99
2017-08-14T00:55:16.868Z,99.99
2017-08-14T00:56:27.078Z,99.99
2017-08-14T00:57:37.358Z,99.99
2017-08-14T00:58:47.640Z,99.99
2017-08-14T00:59:57.621Z,99.99
2017-08-14T01:01:07.917Z,99.99
2017-08-14T01:02:18.142Z,99.99
2017-08-14T01:03:28.415Z,99.99
2017-08-14T01:04:38.392Z,99.99
2017-08-14T01:05:48.667Z,99.99
2017-08-14T01:06:58.964Z,99.99
2017-08-14T01:08:09.207Z,99.99
2017-08-14T01:09:19.481Z,99.99
2017-08-14T01:10:29.468Z,99.99
2017-08-14T01:11:39.435Z,99.99
2017-08-14T01:12:49.404Z,99.99
2017-08-14T01:13:59.617Z,99.99
2017-08-14T01:15:09.904Z,99.99
2017-08-14T01:16:19.877Z,99.99
2017-08-14T01:17:29.522Z,99.99
2017-08-14T01:18:39.814Z,99.99
2017-08-14T01:19:50.017Z,99.99
2017-08-14T01:21:00.313Z,99.99
2017-08-14T01:22:10.579Z,99.99
2017-08-14T01:23:20.878Z,99.99
2017-08-14T01:24:31.148Z,99.99
2017-08-14T01:25:41.682Z,99.99
2017-08-14T01:26:51.657Z,99.99
2017-08-14T01:28:01.928Z,99.99
2017-08-14T01:29:11.584Z,99.99
2017-08-14T01:30:21.552Z,99.99
2017-08-14T01:31:32.083Z,99.99
2017-08-14T01:32:42.364Z,99.99
2017-08-14T01:33:52.656Z,99.99
2017-08-14T01:35:02.633Z,99.99
2017-08-14T01:36:12.934Z,99.99
2017-08-14T01:37:23.459Z,99.99
2017-08-14T01:38:33.742Z,99.99
2017-08-14T01:39:43.710Z,99.99
2017-08-14T01:40:53.994Z,99.99
2017-08-14T01:42:03.656Z,99.99
2017-08-14T01:43:13.884Z,99.99
2017-08-14T01:44:24.152Z,99.99
2017-08-14T01:45:34.116Z,99.99
2017-08-14T01:46:44.089Z,99.99
2017-08-14T01:47:54.075Z,99.99
2017-08-14T01:49:04.623Z,99.99
2017-08-14T01:50:14.600Z,99.99
2017-08-14T01:51:25.108Z,99.99
2017-08-14T01:52:35.066Z,99.99
2017-08-14T01:53:45.348Z,99.99
2017-08-14T01:54:55.562Z,99.99
2017-08-14T01:56:05.534Z,99.99
2017-08-14T01:57:15.811Z,99.99
2017-08-14T01:58:26.098Z,99.99
2017-08-14T01:59:36.390Z,99.99
2017-08-14T02:00:46.918Z,99.99
2017-08-14T02:01:56.892Z,99.99
2017-08-14T02:03:06.853Z,99.99
2017-08-14T02:04:17.122Z,99.99
2017-08-14T02:05:27.401Z,99.99
2017-08-14T02:06:37.908Z,99.99
2017-08-14T02:07:47.880Z,99.99
2017-08-14T02:08:58.164Z,99.99
2017-08-14T02:10:08.464Z,99.99
2017-08-14T02:11:18.731Z,99.99
2017-08-14T02:12:29.260Z,99.99
2017-08-14T02:13:39.547Z,99.99
2017-08-14T02:14:49.198Z,99.99
2017-08-14T02:15:59.161Z,99.99
2017-08-14T02:17:09.429Z,99.99
2017-08-14T02:18:19.962Z,99.99
2017-08-14T02:19:30.244Z,99.99
2017-08-14T02:20:40.205Z,99.99
2017-08-14T02:21:50.172Z,99.99
2017-08-14T02:23:00.140Z,99.99
2017-08-14T02:24:10.657Z,99.99
2017-08-14T02:25:20.625Z,99.99
2017-08-14T02:26:30.914Z,99.99
2017-08-14T02:27:40.884Z,99.99
2017-08-14T02:28:51.162Z,99.99
2017-08-14T02:30:01.695Z,99.99
2017-08-14T02:31:11.970Z,99.99
2017-08-14T02:32:22.255Z,99.99
2017-08-14T02:33:32.219Z,99.99
2017-08-14T02:34:42.182Z,99.99
2017-08-14T02:35:52.710Z,99.99
2017-08-14T02:37:02.671Z,99.99
2017-08-14T02:38:12.651Z,99.99
2017-08-14T02:39:22.626Z,99.99
2017-08-14T02:40:32.602Z,99.99
2017-08-14T02:41:42.510Z,99.99
2017-08-14T02:42:52.494Z,99.99
2017-08-14T02:44:02.456Z,99.99
2017-08-14T02:45:12.424Z,99.99
2017-08-14T02:46:22.730Z,99.99
2017-08-14T02:47:32.640Z,99.99
2017-08-14T02:48:42.617Z,99.99
2017-08-14T02:49:52.912Z,99.99
2017-08-14T02:51:03.183Z,99.99
2017-08-14T02:52:13.472Z,99.99
2017-08-14T02:53:23.675Z,99.99
2017-08-14T02:54:33.644Z,99.99
2017-08-14T02:55:43.616Z,99.99
2017-08-14T02:56:53.594Z,99.99
2017-08-14T02:58:03.878Z,99.99
2017-08-14T02:59:14.392Z,99.99
2017-08-14T03:00:24.363Z,99.99
2017-08-14T03:01:34.331Z,99.99
2017-08-14T03:02:44.603Z,99.99
2017-08-14T03:03:54.578Z,99.99
2017-08-14T03:05:05.100Z,99.99
2017-08-14T03:06:15.071Z,99.99
2017-08-14T03:07:25.346Z,99.99
2017-08-14T03:08:35.615Z,99.99
2017-08-14T03:09:45.894Z,99.99
2017-08-14T03:10:56.104Z,99.99
2017-08-14T03:12:06.388Z,99.99
2017-08-14T03:13:16.348Z,99.99
2017-08-14T03:14:26.606Z,99.99
2017-08-14T03:15:36.866Z,99.99
2017-08-14T03:16:47.430Z,99.99
2017-08-14T03:17:57.387Z,99.99
2017-08-14T03:19:07.358Z,99.99
2017-08-14T03:20:17.620Z,99.99
2017-08-14T03:21:27.896Z,99.99
2017-08-14T03:22:38.435Z,99.99
2017-08-14T03:23:48.720Z,99.99
2017-08-14T03:24:58.991Z,99.99
2017-08-14T03:26:09.261Z,99.99
2017-08-14T03:27:19.538Z,99.99
2017-08-14T03:28:29.447Z,99.99
2017-08-14T03:29:39.743Z,99.99
2017-08-14T03:30:50.022Z,99.99
2017-08-14T03:32:00.025Z,99.99
2017-08-14T03:33:10.295Z,99.99
2017-08-14T03:34:20.820Z,99.99
2017-08-14T03:35:30.773Z,99.99
2017-08-14T03:36:41.051Z,99.99
2017-08-14T03:37:51.326Z,99.99
2017-08-14T03:39:01.599Z,99.99
2017-08-14T03:40:12.132Z,99.99
2017-08-14T03:41:22.425Z,99.99
2017-08-14T03:42:32.385Z,99.99
2017-08-14T03:43:42.686Z,99.99
2017-08-14T03:44:52.978Z,99.99
2017-08-14T03:46:03.196Z,99.99
2017-08-14T03:47:13.471Z,99.99
2017-08-14T03:48:23.758Z,99.99
2017-08-14T03:49:33.725Z,99.99
2017-08-14T03:50:43.705Z,99.99
2017-08-14T03:51:54.227Z,99.99
2017-08-14T03:53:04.499Z,99.99
2017-08-14T03:54:14.479Z,99.99
2017-08-14T03:55:24.761Z,99.99
2017-08-14T03:56:34.411Z,99.99
2017-08-14T03:57:44.618Z,99.99
2017-08-14T03:58:54.913Z,99.99
2017-08-14T04:00:04.556Z,99.99
2017-08-14T04:01:14.822Z,99.99
2017-08-14T04:02:24.794Z,99.99
2017-08-14T04:03:35.313Z,99.99
2017-08-14T04:04:45.588Z,99.99
2017-08-14T04:05:55.874Z,99.99
2017-08-14T04:07:06.143Z,99.99
2017-08-14T04:08:16.422Z,99.99
2017-08-14T04:09:26.680Z,99.99
2017-08-14T04:10:36.018Z,99.99
2017-08-14T04:11:46.277Z,99.99
2017-08-14T04:12:56.543Z,99.99
2017-08-14T04:14:06.536Z,99.99
2017-08-14T04:15:17.048Z,99.99
2017-08-14T04:16:27.320Z,99.99
2017-08-14T04:17:37.634Z,99.99
2017-08-14T04:18:47.626Z,99.99
2017-08-14T04:19:57.594Z,99.99
2017-08-14T04:21:08.135Z,99.99
2017-08-14T04:22:18.410Z,99.99
2017-08-14T04:23:28.359Z,99.99
2017-08-14T04:24:38.646Z,99.99
2017-08-14T04:25:48.599Z,99.99
2017-08-14T04:26:59.119Z,99.99
2017-08-14T04:28:09.395Z,99.99
2017-08-14T04:29:19.676Z,99.99
2017-08-14T04:30:29.948Z,99.99
2017-08-14T04:31:39.916Z,99.99
2017-08-14T04:32:50.438Z,99.99
2017-08-14T04:34:00.718Z,99.99
2017-08-14T04:35:10.990Z,99.99
2017-08-14T04:36:20.951Z,99.99
2017-08-14T04:37:31.252Z,99.99
2017-08-14T04:38:41.773Z,99.99
2017-08-14T04:39:51.732Z,99.99
2017-08-14T04:41:02.011Z,99.99
2017-08-14T04:42:12.280Z,99.99
2017-08-14T04:43:22.550Z,99.99
2017-08-14T04:44:33.065Z,99.99
2017-08-14T04:45:43.354Z,99.99
2017-08-14T04:46:53.000Z,99.99
2017-08-14T04:48:02.996Z,99.99
2017-08-14T04:49:13.280Z,99.99
2017-08-14T04:50:23.495Z,99.99
2017-08-14T04:51:33.769Z,99.99
2017-08-14T04:52:43.428Z,99.99
2017-08-14T04:53:53.707Z,99.99
2017-08-14T04:55:04.000Z,99.99
2017-08-14T04:56:14.525Z,99.99
2017-08-14T04:57:24.801Z,99.99
2017-08-14T04:58:34.783Z,99.99
2017-08-14T04:59:45.047Z,99.99
2017-08-14T05:00:55.324Z,99.99
2017-08-14T05:02:05.215Z,99.99
2017-08-14T05:03:15.179Z,99.99
2017-08-14T05:04:25.152Z,99.99
2017-08-14T05:05:35.124Z,99.99
2017-08-14T05:06:45.393Z,99.99
2017-08-14T05:07:55.944Z,99.99
2017-08-14T05:09:06.218Z,99.99
2017-08-14T05:10:16.487Z,99.99
2017-08-14T05:11:26.465Z,99.99
2017-08-14T05:12:36.439Z,99.99
2017-08-14T05:13:46.985Z,99.99
2017-08-14T05:14:56.953Z,99.99
2017-08-14T05:16:07.267Z,99.99
2017-08-14T05:17:17.536Z,99.99
2017-08-14T05:18:27.808Z,99.99
2017-08-14T05:19:38.017Z,99.99
2017-08-14T05:20:48.308Z,99.99
2017-08-14T05:21:57.969Z,99.99
2017-08-14T05:23:08.248Z,99.99
2017-08-14T05:24:18.516Z,99.99
2017-08-14T05:25:28.726Z,99.99
2017-08-14T05:26:39.021Z,99.99
2017-08-14T05:27:49.281Z,99.99
2017-08-14T05:28:59.556Z,99.99
2017-08-14T05:30:09.837Z,99.99
2017-08-14T05:31:20.042Z,99.99
2017-08-14T05:32:30.024Z,99.99
2017-08-14T05:33:40.006Z,99.99
2017-08-14T05:34:49.986Z,99.99
2017-08-14T05:35:59.653Z,99.99
2017-08-14T05:37:09.869Z,99.99
2017-08-14T05:38:19.856Z,99.99
2017-08-14T05:39:30.434Z,99.99
2017-08-14T05:40:40.721Z,99.99
2017-08-14T05:41:51.011Z,99.99
2017-08-14T05:43:01.525Z,99.99
2017-08-14T05:44:11.806Z,99.99
2017-08-14T05:45:22.093Z,99.99
2017-08-14T05:46:32.064Z,99.99
2017-08-14T05:47:42.031Z,99.99
2017-08-14T05:48:52.570Z,99.99
2017-08-14T05:50:02.878Z,99.99
2017-08-14T05:51:13.152Z,99.82
2017-08-14T05:52:23.745Z,99.72
2017-08-14T05:53:34.004Z,99.15
2017-08-14T05:54:44.221Z,99.15
2017-08-14T05:55:54.192Z,98.86
2017-08-14T05:57:04.498Z,98.76
2017-08-14T05:58:14.472Z,99.05
2017-08-14T05:59:24.108Z,99.05
2017-08-14T06:00:34.629Z,99.15
2017-08-14T06:01:44.593Z,98.76
2017-08-14T06:02:54.862Z,98.76
2017-08-14T06:04:04.835Z,98.67
2017-08-14T06:05:15.121Z,98.76
2017-08-14T06:06:25.680Z,98.47
2017-08-14T06:07:35.652Z,98.96
2017-08-14T06:08:45.608Z,98.47
2017-08-14T06:09:54.951Z,98.28
2017-08-14T06:11:04.936Z,98.47
2017-08-14T06:12:15.462Z,98.47
2017-08-14T06:13:25.125Z,98.67
2017-08-14T06:14:35.410Z,98.67
2017-08-14T06:15:45.692Z,98.43
2017-08-14T06:16:55.971Z,98.24
2017-08-14T06:18:06.531Z,97.85
2017-08-14T06:19:16.802Z,98.14
2017-08-14T06:20:27.093Z,97.18
2017-08-14T06:21:37.373Z,97.47
2017-08-14T06:22:46.722Z,97.38
2017-08-14T06:23:56.923Z,97.47
2017-08-14T06:25:07.200Z,95.94
2017-08-14T06:26:17.169Z,96.22
2017-08-14T06:27:27.453Z,95.46
2017-08-14T06:28:37.408Z,96.32
2017-08-14T06:29:47.952Z,96.03
2017-08-14T06:30:57.912Z,95.7
2017-08-14T06:32:07.870Z,95.89
2017-08-14T06:33:18.151Z,95.89
2017-08-14T06:34:28.431Z,94.74
2017-08-14T06:35:38.670Z,94.93
2017-08-14T06:36:48.980Z,94.54
2017-08-14T06:37:59.253Z,94.74
2017-08-14T06:39:09.213Z,94.54
2017-08-14T06:40:19.496Z,94.07
2017-08-14T06:41:29.719Z,94.35
2017-08-14T06:42:39.692Z,94.02
2017-08-14T06:43:49.973Z,94.07
2017-08-14T06:45:00.257Z,93.92
2017-08-14T06:46:10.528Z,93.15
2017-08-14T06:47:20.794Z,92.48
2017-08-14T06:48:30.757Z,92.29
2017-08-14T06:49:41.034Z,92.19
2017-08-14T06:50:51.335Z,92.48
2017-08-14T06:52:01.628Z,92.19
2017-08-14T06:53:12.158Z,91.91
2017-08-14T06:54:22.127Z,91.14
2017-08-14T06:55:32.092Z,92.19
2017-08-14T06:56:42.065Z,92.19
2017-08-14T06:57:52.353Z,92
2017-08-14T06:59:02.566Z,91.91
2017-08-14T07:00:12.842Z,92.24
2017-08-14T07:01:22.817Z,91.19
2017-08-14T07:02:33.114Z,91.28
2017-08-14T07:03:43.093Z,90.52
2017-08-14T07:04:53.002Z,90.13
2017-08-14T07:06:03.281Z,89.36
2017-08-14T07:07:13.557Z,89.17
2017-08-14T07:08:23.530Z,89.17
2017-08-14T07:09:33.191Z,88.49
2017-08-14T07:10:43.396Z,88.98
2017-08-14T07:11:53.677Z,89.17
2017-08-14T07:13:03.951Z,89.46
2017-08-14T07:14:13.914Z,89.17
2017-08-14T07:15:24.187Z,88.25
2017-08-14T07:16:34.721Z,88.54
2017-08-14T07:17:44.691Z,88.54
2017-08-14T07:18:54.974Z,87.87
2017-08-14T07:20:04.944Z,86.91
2017-08-14T07:21:15.234Z,86.24
2017-08-14T07:22:25.778Z,85.71
2017-08-14T07:23:36.056Z,85.8
2017-08-14T07:24:46.334Z,84.36
2017-08-14T07:25:56.325Z,85.13
2017-08-14T07:27:06.308Z,85.61
2017-08-14T07:28:16.845Z,85.03
2017-08-14T07:29:26.818Z,85.13
2017-08-14T07:30:37.133Z,85.51
2017-08-14T07:31:46.500Z,83.87
2017-08-14T07:32:56.490Z,83.25
2017-08-14T07:34:06.700Z,83.11
2017-08-14T07:35:16.983Z,79.69
2017-08-14T07:36:27.270Z,80.55
2017-08-14T07:37:37.542Z,79.3
2017-08-14T07:38:47.516Z,79.69
2017-08-14T07:39:58.047Z,79.88
2017-08-14T07:41:08.393Z,79.11
2017-08-14T07:42:18.375Z,78.44
2017-08-14T07:43:28.649Z,78.44
2017-08-14T07:44:38.926Z,78.25
2017-08-14T07:45:48.837Z,78.06
2017-08-14T07:46:59.149Z,78.44
2017-08-14T07:48:09.427Z,78.34
2017-08-14T07:49:19.105Z,77.96
2017-08-14T07:50:29.385Z,77.04
2017-08-14T07:51:39.979Z,76.56
2017-08-14T07:52:50.274Z,76.07
2017-08-14T07:54:00.253Z,76.84
2017-08-14T07:55:10.541Z,77.33
2017-08-14T07:56:20.819Z,77.81
2017-08-14T07:57:30.782Z,77.04
2017-08-14T07:58:40.445Z,76.26
2017-08-14T07:59:50.418Z,75.31
2017-08-14T08:01:00.722Z,75.4
2017-08-14T08:02:10.704Z,74.86
2017-08-14T08:03:21.229Z,76.94
2017-08-14T08:04:30.900Z,77.81
2017-08-14T08:05:40.253Z,77.61
2017-08-14T08:06:50.527Z,77.13
2017-08-14T08:08:00.818Z,77.9
2017-08-14T08:09:11.335Z,77.9
2017-08-14T08:10:20.995Z,77.23
2017-08-14T08:11:30.977Z,76.56
2017-08-14T08:12:41.283Z,77.84
2017-08-14T08:13:51.574Z,76.94
2017-08-14T08:15:01.484Z,76.31
2017-08-14T08:16:11.751Z,76.11
2017-08-14T08:17:21.719Z,77.33
2017-08-14T08:18:31.994Z,76.84
2017-08-14T08:19:42.286Z,75.69
2017-08-14T08:20:52.805Z,76.4
2017-08-14T08:22:02.769Z,76.17
2017-08-14T08:23:12.729Z,76.5
2017-08-14T08:24:22.712Z,75.82
2017-08-14T08:25:33.012Z,75.73
2017-08-14T08:26:43.540Z,75.82
2017-08-14T08:27:53.847Z,75.54
2017-08-14T08:29:04.124Z,75.34
2017-08-14T08:30:14.120Z,74.71
2017-08-14T08:31:24.401Z,73.26
2017-08-14T08:32:34.942Z,73.07
2017-08-14T08:33:45.251Z,72.88
2017-08-14T08:34:55.214Z,72.78
2017-08-14T08:36:04.888Z,72.01
2017-08-14T08:37:15.174Z,73.1
2017-08-14T08:38:25.088Z,72.05
2017-08-14T08:39:35.070Z,71.41
2017-08-14T08:40:45.365Z,69.32
2017-08-14T08:41:55.332Z,66.94
2017-08-14T08:43:05.625Z,65.59
2017-08-14T08:44:15.862Z,64.28
2017-08-14T08:45:26.134Z,65.14
2017-08-14T08:46:35.490Z,65.05
2017-08-14T08:47:45.794Z,63.98
2017-08-14T08:48:55.775Z,62.57
2017-08-14T08:50:05.992Z,61.63
2017-08-14T08:51:15.656Z,61.37
2017-08-14T08:52:25.927Z,59.28
2017-08-14T08:53:35.915Z,60.53
2017-08-14T08:54:46.203Z,59.76
2017-08-14T08:55:56.441Z,59.66
2017-08-14T08:57:06.436Z,58.21
2017-08-14T08:58:16.318Z,56.88
2017-08-14T08:59:26.613Z,56.79
2017-08-14T09:00:36.915Z,55.73
2017-08-14T09:01:47.168Z,56.5
2017-08-14T09:02:57.459Z,55.85
2017-08-14T09:04:07.430Z,55.85
2017-08-14T09:05:17.724Z,54.52
2017-08-14T09:06:27.996Z,54.64
2017-08-14T09:07:38.531Z,52.61
2017-08-14T09:08:48.819Z,53.41
2017-08-14T09:09:58.800Z,52.34
2017-08-14T09:11:08.776Z,53.05
2017-08-14T09:12:18.755Z,52.73
2017-08-14T09:13:29.037Z,52.06
2017-08-14T09:14:39.346Z,52.93
2017-08-14T09:15:49.034Z,54.06
2017-08-14T09:16:59.319Z,54.64
2017-08-14T09:18:09.614Z,54.45
2017-08-14T09:19:19.589Z,54.45
2017-08-14T09:20:29.872Z,54.45
2017-08-14T09:21:40.142Z,55
2017-08-14T09:22:50.421Z,54.95
2017-08-14T09:24:00.716Z,56.6
2017-08-14T09:25:11.249Z,57.34
2017-08-14T09:26:21.539Z,57.63
2017-08-14T09:27:31.510Z,57.82
2017-08-14T09:28:41.497Z,58.21
2017-08-14T09:29:51.470Z,57.31
2017-08-14T09:31:01.689Z,57.12
2017-08-14T09:32:11.671Z,56.63
2017-08-14T09:33:21.968Z,56.15
2017-08-14T09:34:32.246Z,55.47
2017-08-14T09:35:43.084Z,56.18
2017-08-14T09:36:53.308Z,55.24
2017-08-14T09:38:03.596Z,54.27
2017-08-14T09:39:13.976Z,53.14
2017-08-14T09:40:24.271Z,53.17
2017-08-14T09:41:34.588Z,52.15
2017-08-14T09:42:45.127Z,51.57
2017-08-14T09:43:55.417Z,50.16
2017-08-14T09:45:05.706Z,48.75
2017-08-14T09:46:15.361Z,47.81
2017-08-14T09:47:25.334Z,47.74
2017-08-14T09:48:35.876Z,45.84
2017-08-14T09:49:46.176Z,45.95
2017-08-14T09:50:56.480Z,44.2
2017-08-14T09:52:06.783Z,42.69
2017-08-14T09:53:17.106Z,41.54
2017-08-14T09:54:27.697Z,41.56
2017-08-14T09:55:37.975Z,40.11
2017-08-14T09:56:47.946Z,39.84
2017-08-14T09:57:58.245Z,39.57
2017-08-14T09:59:08.538Z,39.08
2017-08-14T10:00:18.823Z,38.22
2017-08-14T10:01:28.775Z,38.12
2017-08-14T10:02:39.064Z,37.73
2017-08-14T10:03:49.045Z,38.79
2017-08-14T10:04:59.023Z,39.06
2017-08-14T10:06:09.240Z,38.84
2017-08-14T10:07:18.589Z,39.84
2017-08-14T10:08:28.881Z,40.29
2017-08-14T10:09:39.155Z,40.37
2017-08-14T10:10:49.445Z,40.83
2017-08-14T10:11:59.993Z,43.01
2017-08-14T10:13:10.266Z,43.85
2017-08-14T10:14:19.928Z,44.89
2017-08-14T10:15:29.591Z,44.99
2017-08-14T10:16:39.886Z,44.21
2017-08-14T10:17:50.409Z,43.54
2017-08-14T10:19:00.697Z,43.82
2017-08-14T10:20:10.679Z,43.73
2017-08-14T10:21:20.961Z,44.68
2017-08-14T10:22:31.258Z,44.6
2017-08-14T10:23:41.889Z,43.92
2017-08-14T10:24:52.194Z,43.19
2017-08-14T10:26:02.153Z,43.19
2017-08-14T10:27:12.433Z,42.6
2017-08-14T10:28:22.405Z,43.36
2017-08-14T10:29:32.949Z,44.29
2017-08-14T10:30:43.232Z,42.95
2017-08-14T10:31:53.534Z,42.99
2017-08-14T10:33:03.823Z,43.6
2017-08-14T10:34:14.120Z,44.26
2017-08-14T10:35:24.372Z,44.51
2017-08-14T10:36:34.688Z,45.36
2017-08-14T10:37:44.998Z,45.82
2017-08-14T10:38:54.981Z,44.56
2017-08-14T10:40:04.974Z,45.17
2017-08-14T10:41:15.204Z,44.12
2017-08-14T10:42:25.504Z,44.29
2017-08-14T10:43:35.811Z,43.71
2017-08-14T10:44:46.117Z,45.34
2017-08-14T10:45:56.403Z,45.89
2017-08-14T10:47:07.001Z,45.7
2017-08-14T10:48:16.995Z,45.7
2017-08-14T10:49:27.288Z,46.26
2017-08-14T10:50:37.583Z,47.13
2017-08-14T10:51:47.553Z,48.47
2017-08-14T10:52:58.117Z,49.44
2017-08-14T10:54:08.412Z,50.09
2017-08-14T10:55:18.415Z,49.02
2017-08-14T10:56:28.821Z,48.08
2017-08-14T10:57:38.791Z,46.28
2017-08-14T10:58:49.016Z,46.01
2017-08-14T10:59:59.338Z,44.99
2017-08-14T11:01:09.309Z,44.79
2017-08-14T11:02:19.294Z,43.92
2017-08-14T11:03:29.318Z,44.21
2017-08-14T11:04:39.854Z,43.24
2017-08-14T11:05:50.153Z,43.9
2017-08-14T11:07:00.484Z,44.78
2017-08-14T11:08:10.768Z,43.4
2017-08-14T11:09:21.066Z,43.88
2017-08-14T11:10:31.656Z,44.95
2017-08-14T11:11:41.937Z,44.27
2017-08-14T11:12:52.248Z,45.24
2017-08-14T11:14:02.553Z,44.95
2017-08-14T11:15:12.859Z,44.09
2017-08-14T11:16:23.401Z,44.02
2017-08-14T11:17:33.071Z,42.95
2017-08-14T11:18:43.353Z,43.71
2017-08-14T11:19:53.630Z,44.37
2017-08-14T11:21:03.922Z,44.54
2017-08-14T11:22:14.457Z,43.76
2017-08-14T11:23:24.451Z,43.57
2017-08-14T11:24:34.734Z,42.54
2017-08-14T11:25:45.012Z,40.69
2017-08-14T11:26:55.309Z,40.23
2017-08-14T11:28:05.553Z,41.51
2017-08-14T11:29:15.844Z,41.8
2017-08-14T11:30:25.817Z,43.05
2017-08-14T11:31:36.129Z,43.32
2017-08-14T11:32:46.434Z,43.12
2017-08-14T11:33:56.971Z,42.81
2017-08-14T11:35:06.649Z,43.98
2017-08-14T11:36:16.349Z,42.61
2017-08-14T11:37:26.651Z,40.77
2017-08-14T11:38:36.960Z,41.55
2017-08-14T11:39:47.505Z,42.44
2017-08-14T11:40:57.816Z,41.8
2017-08-14T11:42:08.109Z,42.8
2017-08-14T11:43:18.090Z,42.97
2017-08-14T11:44:28.384Z,43.65
2017-08-14T11:45:38.938Z,43.44
2017-08-14T11:46:48.602Z,43.92
2017-08-14T11:47:58.877Z,44.02
2017-08-14T11:49:09.183Z,42.46
2017-08-14T11:50:19.155Z,42.18
2017-08-14T11:51:29.399Z,43.05
2017-08-14T11:52:39.372Z,42.39
2017-08-14T11:53:49.680Z,42.11
2017-08-14T11:54:59.659Z,40.85
2017-08-14T11:56:09.647Z,41.46
2017-08-14T11:57:19.590Z,41.36
2017-08-14T11:58:29.876Z,42.31
2017-08-14T11:59:39.837Z,41.46
2017-08-14T12:00:49.830Z,41.8
2017-08-14T12:01:59.806Z,41.32
2017-08-14T12:03:10.352Z,41.24
2017-08-14T12:04:20.644Z,40.68
2017-08-14T12:05:30.937Z,40.99
2017-08-14T12:06:40.912Z,39.04
2017-08-14T12:07:50.577Z,38.79
2017-08-14T12:09:01.119Z,38.14
2017-08-14T12:10:11.095Z,37.17
2017-08-14T12:11:21.584Z,37.57
2017-08-14T12:12:31.877Z,37.11
2017-08-14T12:13:42.187Z,36.23
2017-08-14T12:14:52.412Z,37.11
2017-08-14T12:16:02.709Z,37.11
2017-08-14T12:17:12.999Z,35.94
2017-08-14T12:18:22.674Z,36.91
2017-08-14T12:19:32.966Z,37.01
2017-08-14T12:20:44.701Z,37.5
2017-08-14T12:21:57.378Z,35.74
2017-08-14T12:23:07.677Z,35.84
2017-08-14T12:24:17.969Z,34
2017-08-14T12:33:05.589Z,32.53
2017-08-14T12:35:30.621Z,33.74
